Time;durP1;ratioP1;P1;durP2;ratioP2;P2;SDS_P1;SDS_P2;PMS_P1;PMS_P2;Temp;Humidity;BMP_temperature;BMP_pressure;BME280_temperature;BME280_humidity;BME280_pressure;Samples;Min_cycle;Max_cycle;Signal;HPM_P1;HPM_P2
2023/11/25 00:00:45;;;;;;;30.25;23.67;;;;;;;-145.63;57.72;39049.66;4945835;29;20082;-67
2023/11/25 00:03:11;;;;;;;29.80;22.25;;;;;;;-145.63;58.15;39075.09;4945039;29;20099;-67
2023/11/25 00:05:37;;;;;;;28.52;21.95;;;;;;;-145.63;57.86;39037.94;4956810;29;20295;-68
2023/11/25 00:08:03;;;;;;;28.58;22.90;;;;;;;-145.63;57.78;39057.50;4957421;28;20039;-68
2023/11/25 00:10:29;;;;;;;27.38;22.55;;;;;;;-145.63;57.75;39035.97;4945002;29;20028;-68
2023/11/25 00:12:55;;;;;;;29.17;22.85;;;;;;;-145.63;57.37;39047.72;4945192;29;20032;-67
2023/11/25 00:15:23;;;;;;;28.75;21.90;;;;;;;-145.63;57.18;39035.97;4944848;29;20058;-66
2023/11/25 00:17:50;;;;;;;28.27;21.95;;;;;;;-145.63;56.69;39065.31;4944986;29;20028;-68
2023/11/25 00:20:16;;;;;;;29.77;23.13;;;;;;;-145.63;56.88;39100.50;4944844;29;20042;-67
2023/11/25 00:22:42;;;;;;;27.33;20.73;;;;;;;-145.63;56.94;39059.44;4945007;29;20181;-67
2023/11/25 00:25:11;;;;;;;29.80;23.10;;;;;;;-145.63;58.17;39047.72;4945220;29;20024;-66
2023/11/25 00:27:37;;;;;;;29.20;22.35;;;;;;;-145.63;57.68;39039.88;4926104;29;20032;-67
2023/11/25 00:30:04;;;;;;;30.55;24.10;;;;;;;-145.63;56.74;39059.44;4944204;29;20036;-67
2023/11/25 00:32:37;;;;;;;29.57;23.30;;;;;;;-145.63;57.30;39059.44;4949009;29;20048;-68
2023/11/25 00:35:05;;;;;;;30.00;23.70;;;;;;;-145.63;56.63;39063.34;4948691;29;20391;-67
2023/11/25 00:37:32;;;;;;;30.65;24.70;;;;;;;-145.63;56.49;39047.72;4947575;29;20035;-66
2023/11/25 00:40:01;;;;;;;29.88;23.67;;;;;;;-145.63;56.42;39055.53;4948221;29;20032;-66
2023/11/25 00:42:29;;;;;;;;;;;;;;;-145.63;56.32;39051.63;4949147;29;20027;-66
2023/11/25 00:44:55;;;;;;;30.48;24.85;;;;;;;-145.63;56.93;39037.94;4947885;29;19915;-66
2023/11/25 00:47:22;;;;;;;31.20;25.92;;;;;;;-145.63;56.83;39059.44;4928206;29;20028;-67
2023/11/25 00:49:52;;;;;;;30.73;25.45;;;;;;;-145.63;56.36;39067.28;4943295;29;20027;-67
2023/11/25 00:52:18;;;;;;;33.80;27.50;;;;;;;-145.63;56.52;39069.22;4940307;29;20500;-67
2023/11/25 00:54:44;;;;;;;36.05;27.98;;;;;;;-145.63;56.09;39026.19;4948312;29;20027;-67
2023/11/25 00:57:10;;;;;;;31.63;26.15;;;;;;;-145.63;57.07;39047.72;4948261;29;20046;-66
2023/11/25 00:59:36;;;;;;;34.60;26.38;;;;;;;-145.63;57.99;39055.53;4948402;29;20120;-68
2023/11/25 01:02:01;;;;;;;35.90;27.02;;;;;;;-145.63;57.52;39039.88;4948250;29;20298;-66
2023/11/25 01:04:27;;;;;;;32.47;26.88;;;;;;;-145.63;58.10;39022.28;4948145;29;20058;-67
2023/11/25 01:06:53;;;;;;;34.50;26.45;;;;;;;-145.63;57.77;39067.28;4948340;29;20031;-68
2023/11/25 01:09:19;;;;;;;32.30;26.70;;;;;;;-145.63;57.34;39045.75;4948083;29;20059;-67
2023/11/25 01:11:48;;;;;;;26.90;23.25;;;;;;;-145.63;57.83;39051.63;4948127;29;20469;-69
2023/11/25 01:14:14;;;;;;;31.77;23.88;;;;;;;-145.63;56.91;39051.63;4947856;29;20031;-69
2023/11/25 01:16:40;;;;;;;30.77;24.88;;;;;;;-145.63;57.52;39028.16;4947972;29;20032;-68
2023/11/25 01:19:06;;;;;;;34.25;25.52;;;;;;;-145.63;58.16;39028.16;4947980;29;20387;-68
2023/11/25 01:21:32;;;;;;;29.92;24.15;;;;;;;-145.63;57.82;39039.88;4947721;29;20032;-68
2023/11/25 01:23:58;;;;;;;27.85;22.17;;;;;;;-145.63;57.24;39026.19;4978729;28;20024;-67
2023/11/25 01:26:23;;;;;;;29.60;23.45;;;;;;;-145.63;57.05;39057.50;4947586;29;20050;-67
2023/11/25 01:28:49;;;;;;;30.75;24.67;;;;;;;-145.63;56.54;39039.88;4947813;29;20095;-67
2023/11/25 01:31:15;;;;;;;27.77;22.95;;;;;;;-145.63;56.21;39077.06;4947526;29;20087;-67
2023/11/25 01:33:41;;;;;;;30.85;24.02;;;;;;;-145.63;56.91;39063.34;4928606;29;20027;-67
2023/11/25 01:36:11;;;;;;;28.70;24.02;;;;;;;-145.63;56.04;39043.81;4943028;29;20094;-66
2023/11/25 01:38:38;;;;;;;29.10;23.70;;;;;;;-145.63;57.49;39045.75;4947902;29;20023;-68
2023/11/25 01:41:06;;;;;;;28.77;23.60;;;;;;;-145.63;56.26;39047.72;4946473;29;20079;-68
2023/11/25 01:43:32;;;;;;;32.65;25.02;;;;;;;-145.63;56.11;39024.25;4949680;29;20288;-67
2023/11/25 01:46:00;;;;;;;31.00;25.45;;;;;;;-145.63;57.03;39039.88;4966783;28;20038;-67
2023/11/25 01:48:28;;;;;;;28.98;24.88;;;;;;;-145.63;56.90;39047.72;4951215;29;20024;-67
2023/11/25 01:50:55;;;;;;;29.98;25.52;;;;;;;-145.63;57.16;39055.53;4946824;29;20041;-67
2023/11/25 01:53:22;;;;;;;34.70;26.15;;;;;;;-145.63;56.68;39051.63;4944476;29;20106;-67
2023/11/25 01:55:50;;;;;;;32.20;26.92;;;;;;;-145.63;56.47;39155.28;4932228;29;20102;-67
2023/11/25 01:58:18;;;;;;;34.63;26.58;;;;;;;-145.63;57.19;39028.16;4947153;29;20307;-65
2023/11/25 02:00:44;;;;;;;29.27;24.33;;;;;;;-145.63;56.34;39088.78;4928222;29;20054;-66
2023/11/25 02:03:12;;;;;;;29.25;22.60;;;;;;;-145.63;55.91;39092.69;4942668;29;20084;-68
2023/11/25 02:05:38;;;;;;;30.38;24.10;;;;;;;-145.63;56.80;39024.25;4947314;29;20489;-66
2023/11/25 02:08:07;;;;;;;30.98;24.83;;;;;;;-145.63;56.38;39039.88;4947288;29;20059;-66
2023/11/25 02:10:36;;;;;;;29.58;24.25;;;;;;;-145.63;57.34;39035.97;4946870;29;20083;-66
2023/11/25 02:13:03;;;;;;;27.70;23.52;;;;;;;-145.63;57.12;39067.28;4947231;29;20038;-67
2023/11/25 02:15:30;;;;;;;27.63;22.98;;;;;;;-145.63;57.10;39053.59;4936585;29;20103;-67
2023/11/25 02:17:57;;;;;;;27.52;22.85;;;;;;;-145.63;56.84;39039.88;4939752;29;20027;-66
2023/11/25 02:20:37;;;;;;;26.10;21.35;;;;;;;-145.63;57.01;39051.63;4946707;29;20075;-67
2023/11/25 02:23:04;;;;;;;27.10;21.48;;;;;;;-145.63;56.76;39047.72;4946616;29;20034;-68
2023/11/25 02:25:31;;;;;;;29.40;23.02;;;;;;;-145.63;56.57;39069.22;4946710;29;20040;-66
2023/11/25 02:27:56;;;;;;;25.25;20.35;;;;;;;-145.63;55.76;39043.81;4946671;29;20034;-67
2023/11/25 02:30:26;;;;;;;24.83;18.98;;;;;;;-145.63;56.28;39049.66;4946326;29;20031;-67
2023/11/25 02:32:53;;;;;;;26.30;19.75;;;;;;;-145.63;56.84;39063.34;4946470;29;20055;-67
2023/11/25 02:35:20;;;;;;;24.65;19.88;;;;;;;-145.63;56.83;39045.75;4945223;29;20039;-68
2023/11/25 02:37:46;;;;;;;26.85;21.70;;;;;;;-145.63;56.45;39032.06;4946541;29;20032;-67
2023/11/25 02:40:16;;;;;;;26.10;21.00;;;;;;;-145.63;57.13;39053.59;4946516;29;20090;-68
2023/11/25 02:42:47;;;;;;;26.88;20.20;;;;;;;-145.63;56.38;39047.72;4946533;29;20093;-68
2023/11/25 02:45:20;;;;;;;26.23;21.20;;;;;;;-145.63;56.86;39024.25;4946773;29;20050;-66
2023/11/25 02:47:47;;;;;;;28.40;20.50;;;;;;;-145.63;56.46;39045.75;4946344;29;20200;-67
2023/11/25 02:50:13;;;;;;;27.65;21.50;;;;;;;-145.63;56.34;39053.59;4947916;29;20227;-68
2023/11/25 02:52:43;;;;;;;24.10;18.35;;;;;;;-145.63;56.73;39178.75;4946111;29;20034;-68
2023/11/25 02:55:10;;;;;;;24.38;19.42;;;;;;;-145.63;57.49;39049.66;4946246;29;20051;-68
2023/11/25 02:57:43;;;;;;;21.90;18.25;;;;;;;-145.63;56.82;39049.66;4946444;29;20032;-67
2023/11/25 03:00:27;;;;;;;24.35;18.58;;;;;;;-145.63;56.99;39018.38;4946025;29;20024;-66
2023/11/25 03:03:09;;;;;;;20.40;17.98;;;;;;;-145.63;56.82;39057.50;4945928;29;20035;-66
2023/11/25 03:05:38;;;;;;;21.58;18.15;;;;;;;-145.63;55.70;39053.59;4945962;29;20031;-66
2023/11/25 03:08:06;;;;;;;21.55;17.35;;;;;;;-145.63;56.00;39037.94;4946110;29;20103;-65
2023/11/25 03:10:32;;;;;;;23.70;18.95;;;;;;;-145.63;55.36;39045.75;4945831;29;20054;-66
2023/11/25 03:12:59;;;;;;;24.15;18.35;;;;;;;-145.63;56.06;39030.13;4945931;29;20058;-66
2023/11/25 03:15:25;;;;;;;22.00;18.55;;;;;;;-145.63;55.28;39028.16;4935858;29;20020;-66
2023/11/25 03:17:50;;;;;;;23.13;17.55;;;;;;;-145.63;56.42;39061.41;4938338;29;20035;-66
2023/11/25 03:20:16;;;;;;;25.50;19.02;;;;;;;-145.63;55.17;39041.84;4945085;29;20233;-65
2023/11/25 03:22:43;;;;;;;21.60;16.92;;;;;;;-145.63;55.88;39034.03;4945703;29;20247;-67
2023/11/25 03:25:10;;;;;;;25.17;18.85;;;;;;;-145.63;55.29;39057.50;4945922;29;20050;-67
2023/11/25 03:27:36;;;;;;;22.23;18.08;;;;;;;-145.63;56.09;39075.09;4928898;29;20024;-69
2023/11/25 03:30:06;;;;;;;22.77;18.30;;;;;;;-145.63;55.87;39069.22;4945716;29;20035;-69
2023/11/25 03:32:32;;;;;;;22.85;18.30;;;;;;;-145.63;54.43;39079.00;4945855;29;20320;-69
2023/11/25 03:34:58;;;;;;;21.17;16.85;;;;;;;-145.63;54.30;39028.16;4945597;29;20036;-69
2023/11/25 03:37:24;;;;;;;20.30;17.25;;;;;;;-145.63;55.23;39061.41;4945615;29;20074;-68
2023/11/25 03:39:50;;;;;;;21.05;17.33;;;;;;;-145.63;54.30;39061.41;4926946;29;20028;-69
2023/11/25 03:42:19;;;;;;;20.40;15.90;;;;;;;-145.63;54.76;39086.81;4940867;29;20027;-69
2023/11/25 03:44:46;;;;;;;18.92;16.42;;;;;;;-145.63;55.66;39051.63;4945404;29;20051;-68
2023/11/25 03:47:13;;;;;;;21.23;16.65;;;;;;;-145.63;54.41;39016.44;4945324;29;20024;-69
2023/11/25 03:49:39;;;;;;;21.30;15.65;;;;;;;-145.63;54.55;39053.59;4944555;29;20023;-68
2023/11/25 03:52:08;;;;;;;20.92;17.48;;;;;;;-145.63;55.70;39045.75;4945288;29;20039;-68
2023/11/25 03:54:33;;;;;;;20.02;16.52;;;;;;;-145.63;54.75;39069.22;4945053;29;20027;-68
2023/11/25 03:56:59;;;;;;;19.10;15.73;;;;;;;-145.63;54.63;39030.13;4945232;29;20086;-69
2023/11/25 03:59:25;;;;;;;22.35;14.93;;;;;;;-145.63;55.15;39035.97;4945066;29;20039;-68
2023/11/25 04:01:51;;;;;;;18.58;15.63;;;;;;;-145.63;55.47;39039.88;4944645;29;20035;-68
2023/11/25 04:04:17;;;;;;;22.20;15.77;;;;;;;-145.63;55.57;39039.88;4950109;29;20046;-67
2023/11/25 04:06:43;;;;;;;20.83;15.73;;;;;;;-145.63;55.51;39061.41;4949989;29;20272;-67
2023/11/25 04:09:09;;;;;;;17.73;14.50;;;;;;;-145.63;54.91;39055.53;4951243;29;20038;-66
2023/11/25 04:11:35;;;;;;;17.58;14.30;;;;;;;-145.63;54.45;39053.59;4951248;29;20023;-66
2023/11/25 04:14:01;;;;;;;19.08;15.05;;;;;;;-145.63;54.68;39063.34;4951293;29;20062;-67
2023/11/25 04:16:26;;;;;;;18.15;15.32;;;;;;;-145.63;55.53;39049.66;4933287;29;20376;-67
2023/11/25 04:18:52;;;;;;;19.63;15.50;;;;;;;-145.63;55.08;39063.34;4932392;29;20024;-68
2023/11/25 04:21:21;;;;;;;19.67;15.35;;;;;;;-145.63;56.07;39008.59;4946825;29;20141;-68
2023/11/25 04:23:51;;;;;;;21.65;16.15;;;;;;;-145.63;54.78;39045.75;4951416;29;20032;-66
2023/11/25 04:26:19;;;;;;;19.20;15.43;;;;;;;-145.63;56.11;39043.81;4950982;29;20070;-65
2023/11/25 04:28:46;;;;;;;20.67;16.05;;;;;;;-145.63;56.34;39045.75;4952419;29;20205;-68
2023/11/25 04:31:11;;;;;;;18.35;15.35;;;;;;;-145.63;55.55;38910.81;4963119;28;20288;-66
2023/11/25 04:33:37;;;;;;;20.52;15.82;;;;;;;-145.63;55.37;39067.28;4950858;29;20030;-69
2023/11/25 04:36:03;;;;;;;18.77;15.90;;;;;;;-145.63;56.02;39061.41;4951081;29;20315;-68
2023/11/25 04:38:29;;;;;;;20.50;16.73;;;;;;;-145.63;55.85;39088.78;4949832;29;20046;-69
2023/11/25 04:40:55;;;;;;;18.77;15.60;;;;;;;-145.63;54.83;39063.34;4951251;29;20046;-68
2023/11/25 04:43:21;;;;;;;21.45;16.35;;;;;;;-145.63;55.77;39075.09;4951441;29;20051;-69
2023/11/25 04:45:47;;;;;;;19.20;15.85;;;;;;;-145.63;55.31;39075.09;4950005;29;20323;-67
2023/11/25 04:48:12;;;;;;;18.40;15.93;;;;;;;-145.63;54.80;39079.00;4951016;29;20027;-66
2023/11/25 04:50:39;;;;;;;16.90;15.07;;;;;;;-145.63;54.89;39086.81;4954338;29;20031;-65
2023/11/25 04:53:05;;;;;;;17.40;15.40;;;;;;;-145.63;55.36;39077.06;4950806;29;20066;-66
2023/11/25 04:55:31;;;;;;;19.33;15.15;;;;;;;-145.63;55.33;39080.97;4949893;29;20185;-65
2023/11/25 04:57:57;;;;;;;16.23;13.90;;;;;;;-145.63;54.68;39020.34;4951210;29;20066;-66
2023/11/25 05:00:24;;;;;;;16.55;13.98;;;;;;;-145.63;54.50;39059.44;4951009;29;20220;-66
2023/11/25 05:02:49;;;;;;;21.00;15.13;;;;;;;-145.63;54.90;39075.09;4951120;29;20039;-67
2023/11/25 05:05:15;;;;;;;18.90;14.75;;;;;;;-145.63;54.63;39079.00;4950934;29;20182;-65
2023/11/25 05:07:41;;;;;;;17.65;14.05;;;;;;;-145.63;54.70;39063.34;4951030;29;20055;-66
2023/11/25 05:10:09;;;;;;;17.75;14.15;;;;;;;-145.63;54.42;39067.28;4950985;29;20038;-68
2023/11/25 05:12:41;;;;;;;17.60;13.98;;;;;;;-145.63;54.03;39041.84;4950213;29;20031;-67
2023/11/25 05:15:11;;;;;;;18.90;14.55;;;;;;;-145.63;54.14;39106.38;4941601;29;20052;-66
2023/11/25 05:17:38;;;;;;;17.98;14.88;;;;;;;-145.63;54.59;39102.47;4937844;29;20022;-66
2023/11/25 05:20:09;;;;;;;17.75;15.13;;;;;;;-145.63;53.67;39065.31;4947751;29;20023;-67
2023/11/25 05:22:35;;;;;;;17.92;15.50;;;;;;;-145.63;53.75;39057.50;4947633;29;20087;-66
2023/11/25 05:25:00;;;;;;;19.70;15.35;;;;;;;-145.63;53.14;39096.59;4947893;29;20054;-66
2023/11/25 05:27:26;;;;;;;17.10;14.02;;;;;;;-145.63;53.27;39037.94;4947741;29;20047;-66
2023/11/25 05:29:52;;;;;;;16.50;14.57;;;;;;;-145.63;53.61;39075.09;4947811;29;20086;-65
2023/11/25 05:32:17;;;;;;;18.30;14.75;;;;;;;-145.63;54.13;39079.00;4947319;29;20039;-68
2023/11/25 05:34:43;;;;;;;17.70;14.30;;;;;;;-145.63;53.33;39071.19;4947349;29;20251;-70
2023/11/25 05:37:09;;;;;;;16.95;14.10;;;;;;;-145.63;54.46;39079.00;4947717;29;20028;-68
2023/11/25 05:39:36;;;;;;;19.20;14.60;;;;;;;-145.63;54.67;39055.53;4947446;29;20031;-67
2023/11/25 05:42:04;;;;;;;17.67;14.68;;;;;;;-145.63;53.15;39053.59;4959480;29;20074;-68
2023/11/25 05:44:31;;;;;;;19.83;14.85;;;;;;;-145.63;53.86;39110.28;4958796;28;20436;-69
2023/11/25 05:46:57;;;;;;;18.50;14.98;;;;;;;-145.63;53.98;39075.09;4950577;29;20023;-67
2023/11/25 05:49:23;;;;;;;18.80;14.55;;;;;;;-145.63;54.04;39086.81;4960419;28;20083;-67
2023/11/25 05:51:51;;;;;;;19.40;15.55;;;;;;;-145.63;53.42;39077.06;4947267;29;20032;-66
2023/11/25 05:54:18;;;;;;;18.65;15.43;;;;;;;-145.63;53.73;39090.75;4946966;29;20027;-68
2023/11/25 05:56:45;;;;;;;18.17;14.90;;;;;;;-145.63;53.08;39045.75;4947315;29;20034;-66
2023/11/25 05:59:11;;;;;;;18.88;15.30;;;;;;;-145.63;52.86;39043.81;4945993;29;20023;-66
2023/11/25 06:01:37;;;;;;;18.00;14.50;;;;;;;-145.63;52.73;39016.44;4947178;29;20198;-67
2023/11/25 06:04:03;;;;;;;17.13;15.00;;;;;;;-145.63;52.99;39061.41;4946990;29;20042;-66
2023/11/25 06:06:29;;;;;;;16.70;14.32;;;;;;;-145.63;52.71;39032.06;4947058;29;20085;-68
2023/11/25 06:08:55;;;;;;;18.35;15.00;;;;;;;-145.63;52.77;39030.13;4946920;29;20051;-68
2023/11/25 06:11:22;;;;;;;18.60;15.32;;;;;;;-145.63;53.29;39043.81;4945671;29;20232;-67
2023/11/25 06:13:48;;;;;;;20.30;15.20;;;;;;;-145.63;52.08;39039.88;4946887;29;20032;-70
2023/11/25 06:16:15;;;;;;;19.33;15.52;;;;;;;-145.63;52.34;39024.25;4946638;29;20058;-69
2023/11/25 06:18:41;;;;;;;17.98;14.50;;;;;;;-145.63;53.32;39041.84;4947108;29;20055;-67
2023/11/25 06:21:07;;;;;;;20.33;15.38;;;;;;;-145.63;52.96;39004.69;4945869;29;20090;-68
2023/11/25 06:23:33;;;;;;;19.30;15.23;;;;;;;-145.63;53.02;39024.25;4946770;29;20423;-68
2023/11/25 06:25:59;;;;;;;20.30;15.95;;;;;;;-145.63;52.67;39032.06;4946116;29;20028;-68
2023/11/25 06:28:27;;;;;;;17.92;15.25;;;;;;;-145.63;52.77;39051.63;4946717;29;20030;-68
2023/11/25 06:30:53;;;;;;;19.02;15.80;;;;;;;-145.63;53.10;39059.44;4946680;29;20102;-67
2023/11/25 06:33:22;;;;;;;18.70;15.45;;;;;;;-145.63;51.92;39051.63;4946441;29;20082;-67
2023/11/25 06:35:48;;;;;;;19.90;16.88;;;;;;;-145.63;51.58;39047.72;4946481;29;20042;-68
2023/11/25 06:38:13;;;;;;;20.38;15.20;;;;;;;-145.63;52.71;39035.97;4947524;29;20319;-67
2023/11/25 06:40:40;;;;;;;18.30;15.85;;;;;;;-145.63;51.70;39030.13;4955102;29;20274;-67
2023/11/25 06:43:06;;;;;;;21.00;15.98;;;;;;;-145.63;52.61;39088.78;4956633;29;20027;-68
2023/11/25 06:45:33;;;;;;;18.30;15.40;;;;;;;-145.63;52.26;38926.47;4955516;29;20099;-67
2023/11/25 06:47:59;;;;;;;19.48;15.73;;;;;;;-145.63;52.62;39035.97;4955440;29;20027;-68
2023/11/25 06:50:25;;;;;;;18.75;16.17;;;;;;;-145.63;51.68;39088.78;4954313;29;20027;-67
2023/11/25 06:52:51;;;;;;;20.33;16.00;;;;;;;-145.63;51.70;39059.44;4954857;29;20050;-67
2023/11/25 06:55:20;;;;;;;20.23;16.65;;;;;;;-145.63;52.71;39065.31;4957042;29;20111;-66
2023/11/25 06:57:49;;;;;;;20.23;15.90;;;;;;;-145.63;51.12;39055.53;4950848;29;20307;-67
2023/11/25 07:00:16;;;;;;;19.48;15.73;;;;;;;-145.63;51.87;39024.25;4951520;29;20023;-67
2023/11/25 07:02:43;;;;;;;21.25;16.73;;;;;;;-145.63;51.23;39032.06;4955550;28;20030;-68
2023/11/25 07:05:09;;;;;;;23.63;18.40;;;;;;;-145.63;52.31;39037.94;4957755;29;20299;-68
2023/11/25 07:07:35;;;;;;;20.05;16.83;;;;;;;-145.63;52.19;39069.22;4955549;29;20015;-69
2023/11/25 07:10:03;;;;;;;21.25;16.38;;;;;;;-145.63;52.31;39016.44;4955909;29;20101;-67
2023/11/25 07:12:30;;;;;;;19.85;16.13;;;;;;;-145.63;51.16;39016.44;4955944;29;20078;-67
2023/11/25 07:14:56;;;;;;;19.50;16.02;;;;;;;-145.63;52.08;39022.28;4955656;29;20019;-67
2023/11/25 07:17:22;;;;;;;17.83;15.65;;;;;;;-145.63;52.44;39032.06;4954922;28;20040;-67
2023/11/25 07:19:48;;;;;;;19.67;15.55;;;;;;;-145.63;52.17;39012.50;4950813;29;20038;-66
2023/11/25 07:22:13;;;;;;;19.60;15.85;;;;;;;-145.63;51.08;38998.81;4944966;29;20031;-69
2023/11/25 07:24:39;;;;;;;19.13;15.63;;;;;;;-145.63;50.76;39022.28;4944975;29;20055;-67
2023/11/25 07:27:10;;;;;;;22.17;17.75;;;;;;;-145.63;51.53;39032.06;4951288;29;20036;-66
2023/11/25 07:29:37;;;;;;;20.45;16.90;;;;;;;-145.63;51.61;39041.84;4941581;29;20031;-66
2023/11/25 07:32:03;;;;;;;26.63;21.02;;;;;;;-145.63;51.82;39032.06;4935118;29;20048;-68
2023/11/25 07:34:32;;;;;;;20.90;17.85;;;;;;;-145.63;51.30;39043.81;4983253;28;20320;-70
2023/11/25 07:36:58;;;;;;;22.90;18.10;;;;;;;-145.63;50.85;39020.34;4952455;29;20308;-67
2023/11/25 07:39:23;;;;;;;20.63;17.35;;;;;;;-145.63;51.77;39051.63;4951163;29;20019;-69
2023/11/25 07:41:53;;;;;;;19.98;16.35;;;;;;;-145.63;50.91;39059.44;4944565;29;20034;-67
2023/11/25 07:44:21;;;;;;;21.02;16.42;;;;;;;-145.63;51.87;39035.97;4950728;29;20024;-66
2023/11/25 07:46:49;;;;;;;22.77;16.85;;;;;;;-145.63;50.87;39039.88;4953052;29;20050;-68
2023/11/25 07:49:15;;;;;;;22.25;17.05;;;;;;;-145.63;51.66;39024.25;4953572;29;20114;-69
2023/11/25 07:51:41;;;;;;;21.58;17.20;;;;;;;-145.63;51.54;39024.25;4950870;29;20082;-68
2023/11/25 07:54:08;;;;;;;22.85;17.00;;;;;;;-145.63;51.56;39020.34;4938805;29;20347;-68
2023/11/25 07:56:34;;;;;;;24.55;19.60;;;;;;;-145.63;52.42;39026.19;4952913;29;20529;-68
2023/11/25 07:59:00;;;;;;;21.23;17.20;;;;;;;-145.63;51.43;39032.06;4944305;29;20063;-67
2023/11/25 08:01:26;;;;;;;21.60;17.50;;;;;;;-145.63;50.74;39049.66;4950831;29;20026;-68
2023/11/25 08:03:52;;;;;;;23.23;17.73;;;;;;;-145.63;51.06;39030.13;4954658;28;20031;-69
2023/11/25 08:06:18;;;;;;;23.77;17.23;;;;;;;-145.63;50.70;38989.03;4945530;29;20034;-68
2023/11/25 08:08:48;;;;;;;20.08;16.77;;;;;;;-145.63;50.59;39059.44;4975880;28;20215;-67
2023/11/25 08:11:24;;;;;;;20.90;17.58;;;;;;;-145.63;50.72;39086.81;4944845;29;20024;-67
2023/11/25 08:13:50;;;;;;;22.23;18.60;;;;;;;-145.63;50.41;39090.75;4943931;29;20051;-68
2023/11/25 08:16:18;;;;;;;26.73;20.35;;;;;;;-145.63;51.30;39061.41;4952738;29;20092;-68
2023/11/25 08:18:47;;;;;;;25.60;19.25;;;;;;;-145.63;50.47;39071.19;4950971;29;20094;-68
2023/11/25 08:21:14;;;;;;;22.58;18.23;;;;;;;-145.63;50.68;39043.81;4949360;29;20116;-70
2023/11/25 08:23:41;;;;;;;23.55;19.00;;;;;;;-145.63;50.74;39041.84;4944232;29;20091;-68
2023/11/25 08:26:21;;;;;;;24.55;18.88;;;;;;;-145.63;50.09;39043.81;4949550;29;20045;-69
2023/11/25 08:28:49;;;;;;;23.98;18.48;;;;;;;-145.63;50.47;39090.75;4942825;29;20032;-69
2023/11/25 08:31:17;;;;;;;25.98;19.27;;;;;;;-145.63;49.80;39075.09;4941585;29;20047;-68
2023/11/25 08:33:43;;;;;;;26.95;19.92;;;;;;;-145.63;50.09;39067.28;4947487;29;20027;-69
2023/11/25 08:36:14;;;;;;;24.95;18.92;;;;;;;-145.63;49.63;39051.63;4947027;29;20035;-68
2023/11/25 08:38:40;;;;;;;30.23;22.45;;;;;;;-145.63;49.48;39035.97;4950568;29;20079;-68
2023/11/25 08:41:06;;;;;;;28.95;21.10;;;;;;;-145.63;49.78;39047.72;4954343;28;20035;-69
2023/11/25 08:43:39;;;;;;;24.40;19.00;;;;;;;-145.63;50.07;39049.66;4953553;29;20045;-68
2023/11/25 08:46:06;;;;;;;26.65;20.38;;;;;;;-145.63;49.54;39047.72;4953134;29;20059;-67
2023/11/25 08:48:31;;;;;;;25.42;19.05;;;;;;;-145.63;49.14;39034.03;4952714;29;20058;-68
2023/11/25 08:50:57;;;;;;;25.92;19.80;;;;;;;-145.63;49.28;39059.44;4955067;29;20028;-71
2023/11/25 08:53:23;;;;;;;29.60;20.65;;;;;;;-145.63;49.46;39067.28;4958008;29;20173;-70
2023/11/25 08:55:50;;;;;;;31.60;20.95;;;;;;;-145.63;49.24;39010.56;4957409;29;20019;-69
2023/11/25 08:58:16;;;;;;;30.58;23.25;;;;;;;-145.63;49.61;39053.59;4958528;29;20467;-68
2023/11/25 09:00:43;;;;;;;34.40;26.35;;;;;;;-145.63;49.65;39024.25;4939868;29;20024;-69
2023/11/25 09:03:10;;;;;;;34.42;24.23;;;;;;;-145.63;49.45;39045.75;4954452;29;20034;-66
2023/11/25 09:05:40;;;;;;;31.90;22.17;;;;;;;-145.63;49.83;39037.94;4957386;29;20115;-68
2023/11/25 09:08:09;;;;;;;28.35;21.85;;;;;;;-145.63;49.08;39030.13;4956262;29;20031;-67
2023/11/25 09:10:35;;;;;;;27.23;20.77;;;;;;;-145.63;48.90;39057.50;4955132;29;20077;-67
2023/11/25 09:13:02;;;;;;;27.20;19.90;;;;;;;-145.63;48.77;39080.97;4943286;29;20039;-67
2023/11/25 09:15:28;;;;;;;26.00;19.92;;;;;;;-145.63;49.17;39061.41;4948053;29;20303;-67
2023/11/25 09:17:54;;;;;;;25.00;19.85;;;;;;;-145.63;49.61;39016.44;4958539;28;20039;-69
2023/11/25 09:20:23;;;;;;;24.48;20.02;;;;;;;-145.63;49.45;39075.09;4958183;29;20030;-69
2023/11/25 09:22:49;;;;;;;26.98;20.42;;;;;;;-145.63;49.22;39090.75;4953857;29;20094;-68
2023/11/25 09:25:15;;;;;;;27.40;20.23;;;;;;;-145.63;49.25;39055.53;4957933;29;20335;-68
2023/11/25 09:27:41;;;;;;;26.38;20.73;;;;;;;-145.63;49.38;39051.63;4956829;29;20082;-68
2023/11/25 09:30:11;;;;;;;25.73;20.02;;;;;;;-145.63;49.23;38899.09;4956894;29;20039;-70
2023/11/25 09:32:38;;;;;;;26.23;19.65;;;;;;;-145.63;48.94;39037.94;4957243;29;20058;-69
2023/11/25 09:35:06;;;;;;;29.15;20.05;;;;;;;-145.63;49.01;39075.09;4957616;29;20031;-68
2023/11/25 09:37:33;;;;;;;26.08;21.00;;;;;;;-145.63;49.11;39055.53;4955323;29;20039;-67
2023/11/25 09:40:03;;;;;;;26.77;19.70;;;;;;;-145.63;48.54;39086.81;4950746;29;20063;-68
2023/11/25 09:42:34;;;;;;;26.52;19.80;;;;;;;-145.63;48.80;39073.13;4955923;29;20028;-68
2023/11/25 09:45:00;;;;;;;27.70;21.15;;;;;;;-145.63;48.80;39049.66;4955884;29;20231;-67
2023/11/25 09:47:27;;;;;;;27.10;20.20;;;;;;;-145.63;48.35;39108.34;4956790;28;20319;-68
2023/11/25 09:49:54;;;;;;;23.63;19.65;;;;;;;-145.63;48.67;39067.28;4953145;29;20055;-70
2023/11/25 09:52:20;;;;;;;24.73;19.45;;;;;;;-145.63;48.46;39065.31;4962514;29;20060;-70
2023/11/25 09:54:46;;;;;;;23.25;18.98;;;;;;;-145.63;48.05;39092.69;4957174;29;20024;-69
2023/11/25 09:57:19;;;;;;;30.25;20.73;;;;;;;-145.63;48.04;39094.66;4955420;28;20031;-71
2023/11/25 09:59:46;;;;;;;25.27;19.88;;;;;;;-145.63;48.86;39092.69;4953903;29;20091;-70
2023/11/25 10:02:16;;;;;;;29.23;21.75;;;;;;;-145.63;48.71;39063.34;4957216;29;20028;-69
2023/11/25 10:04:46;;;;;;;28.95;21.13;;;;;;;-145.63;48.70;39075.09;4953189;29;20015;-70
2023/11/25 10:07:12;;;;;;;30.00;21.20;;;;;;;-145.63;48.84;39077.06;4957171;29;20043;-71
2023/11/25 10:09:41;;;;;;;26.48;19.45;;;;;;;-145.63;48.91;39057.50;4956803;29;20031;-71
2023/11/25 10:12:09;;;;;;;30.33;21.85;;;;;;;-145.63;48.97;39069.22;4954181;29;20059;-70
2023/11/25 10:14:45;;;;;;;27.52;20.98;;;;;;;-145.63;49.71;39073.13;4957723;29;20022;-69
2023/11/25 10:17:19;;;;;;;31.90;21.67;;;;;;;-145.63;49.08;39086.81;4954365;29;20329;-69
2023/11/25 10:19:49;;;;;;;36.42;24.65;;;;;;;-145.63;49.86;39075.09;4953261;29;20024;-69
2023/11/25 10:22:19;;;;;;;35.85;28.08;;;;;;;-145.63;49.22;39075.09;4954861;29;20538;-70
2023/11/25 10:24:49;;;;;;;29.00;22.65;;;;;;;-145.63;49.22;39102.47;4950684;29;20019;-68
2023/11/25 10:27:19;;;;;;;30.40;21.58;;;;;;;-145.63;49.06;39092.69;4956496;29;20027;-71
2023/11/25 10:29:49;;;;;;;28.55;21.92;;;;;;;-145.63;50.14;39102.47;4957335;29;20363;-70
2023/11/25 10:32:15;;;;;;;33.78;22.83;;;;;;;-145.63;50.18;39098.56;4957035;28;20097;-70
2023/11/25 10:34:41;;;;;;;32.75;23.63;;;;;;;-145.63;50.57;39079.00;4955491;29;20031;-70
2023/11/25 10:37:09;;;;;;;35.03;23.70;;;;;;;-145.63;49.60;39082.91;4957129;29;20335;-70
2023/11/25 10:39:35;;;;;;;32.97;23.95;;;;;;;-145.63;49.36;39067.28;4956696;29;20023;-70
2023/11/25 10:42:04;;;;;;;33.47;23.38;;;;;;;-145.63;49.31;39143.53;4955171;28;20045;-70
2023/11/25 10:44:30;;;;;;;34.10;23.63;;;;;;;-145.63;49.48;39086.81;4956140;28;20137;-69
2023/11/25 10:46:56;;;;;;;33.88;23.88;;;;;;;-145.63;49.51;39059.44;4949576;29;20074;-70
2023/11/25 10:49:23;;;;;;;36.67;24.50;;;;;;;-145.63;49.85;39084.88;4953689;29;20095;-69
2023/11/25 10:51:55;;;;;;;31.02;22.85;;;;;;;-145.63;49.25;39059.44;4952688;29;20020;-71
2023/11/25 10:54:26;;;;;;;46.92;28.45;;;;;;;-145.63;49.51;39149.41;4950370;29;20026;-70
2023/11/25 10:56:54;;;;;;;35.25;27.27;;;;;;;-145.63;49.22;39110.28;4956316;29;20027;-70
2023/11/25 10:59:20;;;;;;;36.55;25.75;;;;;;;-145.63;49.23;39104.44;4953827;29;20019;-70
2023/11/25 11:01:50;;;;;;;38.33;26.65;;;;;;;-145.63;49.98;39088.78;4955334;28;20054;-71